createdAt,value
2018-12-17T00:02:26.038Z,1.80
2018-12-17T00:04:54.140Z,1.90
2018-12-17T00:07:22.311Z,1.80
2018-12-17T00:09:50.463Z,1.80
2018-12-17T00:12:19.435Z,1.90
2018-12-17T00:14:47.555Z,1.90
2018-12-17T00:17:15.865Z,1.90
2018-12-17T00:19:43.963Z,1.90
2018-12-17T00:22:12.103Z,1.90
2018-12-17T00:24:40.704Z,2.00
2018-12-17T00:27:09.011Z,1.90
2018-12-17T00:29:37.210Z,2.00
2018-12-17T00:32:05.564Z,2.00
2018-12-17T00:34:33.922Z,2.00
2018-12-17T00:37:02.189Z,2.00
2018-12-17T00:39:30.671Z,2.00
2018-12-17T00:41:58.860Z,2.00
2018-12-17T00:44:27.241Z,2.00
2018-12-17T00:46:56.175Z,2.00
2018-12-17T00:49:24.338Z,2.00
2018-12-17T00:51:52.523Z,2.00
2018-12-17T00:54:20.642Z,2.00
2018-12-17T00:56:48.953Z,2.00
2018-12-17T00:59:17.304Z,2.00
2018-12-17T01:01:45.452Z,2.10
2018-12-17T01:04:13.802Z,2.10
2018-12-17T01:06:42.006Z,2.00
2018-12-17T01:09:10.304Z,2.00
2018-12-17T01:11:38.528Z,2.00
2018-12-17T01:14:06.840Z,1.90
2018-12-17T01:16:34.988Z,2.00
2018-12-17T01:19:03.252Z,2.00
2018-12-17T01:21:31.987Z,2.00
2018-12-17T01:24:00.313Z,2.00
2018-12-17T01:26:29.119Z,2.00
2018-12-17T01:28:57.327Z,1.90
2018-12-17T01:31:25.470Z,1.90
2018-12-17T01:33:53.882Z,2.00
2018-12-17T01:36:22.009Z,1.90
2018-12-17T01:38:50.120Z,1.90
2018-12-17T01:41:18.289Z,1.90
2018-12-17T01:43:46.390Z,2.00
2018-12-17T01:46:14.569Z,1.90
2018-12-17T01:48:42.976Z,1.90
2018-12-17T01:51:11.107Z,1.90
2018-12-17T01:53:39.874Z,1.90
2018-12-17T01:56:08.007Z,1.90
2018-12-17T01:58:36.322Z,1.90
2018-12-17T02:01:04.832Z,1.90
2018-12-17T02:03:33.306Z,2.00
2018-12-17T02:06:01.690Z,2.00
2018-12-17T02:08:30.612Z,1.90
2018-12-17T02:10:59.027Z,2.00
2018-12-17T02:13:27.122Z,2.10
2018-12-17T02:15:55.489Z,2.10
2018-12-17T02:18:23.869Z,2.10
2018-12-17T02:20:52.029Z,2.10
2018-12-17T02:23:20.319Z,2.10
2018-12-17T02:25:48.677Z,2.20
2018-12-17T02:28:16.867Z,2.20
2018-12-17T02:30:45.167Z,2.20
2018-12-17T02:33:14.260Z,2.30
2018-12-17T02:35:42.614Z,2.30
2018-12-17T02:38:10.777Z,2.30
2018-12-17T02:40:39.045Z,2.30
2018-12-17T02:43:07.175Z,2.30
2018-12-17T02:45:35.323Z,2.30
2018-12-17T02:48:03.665Z,2.30
2018-12-17T02:50:31.813Z,2.20
2018-12-17T02:52:59.917Z,2.30
2018-12-17T02:55:28.343Z,2.30
2018-12-17T02:57:56.485Z,2.30
2018-12-17T03:00:24.829Z,2.20
2018-12-17T03:02:52.990Z,2.20
2018-12-17T03:05:21.779Z,2.30
2018-12-17T03:07:56.647Z,2.30
2018-12-17T03:10:25.065Z,2.30
2018-12-17T03:12:53.258Z,2.20
2018-12-17T03:15:21.657Z,2.20
2018-12-17T03:17:50.053Z,2.20
2018-12-17T03:20:18.434Z,2.20
2018-12-17T03:22:46.594Z,2.20
2018-12-17T03:25:14.817Z,2.10
2018-12-17T03:27:43.063Z,2.20
2018-12-17T03:30:11.296Z,2.20
2018-12-17T03:32:39.370Z,2.20
2018-12-17T03:35:08.039Z,2.20
2018-12-17T03:37:37.175Z,2.20
2018-12-17T03:40:06.132Z,2.20
2018-12-17T03:42:34.200Z,2.30
2018-12-17T03:45:03.576Z,2.30
2018-12-17T03:47:31.901Z,2.30
2018-12-17T03:50:00.208Z,2.30
2018-12-17T03:52:29.310Z,2.30
2018-12-17T03:54:57.711Z,2.30
2018-12-17T03:57:27.114Z,2.40
2018-12-17T03:59:55.396Z,2.30
2018-12-17T04:02:23.550Z,2.40
2018-12-17T04:04:52.586Z,2.30
2018-12-17T04:07:20.955Z,2.30
2018-12-17T04:09:49.934Z,2.20
2018-12-17T04:12:19.116Z,2.20
2018-12-17T04:14:48.041Z,2.20
2018-12-17T04:17:16.310Z,2.20
2018-12-17T04:19:45.104Z,2.20
2018-12-17T04:22:13.294Z,2.20
2018-12-17T04:24:42.239Z,2.20
2018-12-17T04:27:10.509Z,2.20
2018-12-17T04:29:38.874Z,2.20
2018-12-17T04:32:07.197Z,2.30
2018-12-17T04:34:35.292Z,2.20
2018-12-17T04:37:03.400Z,2.20
2018-12-17T04:39:31.547Z,2.20
2018-12-17T04:41:59.866Z,2.20
2018-12-17T04:44:27.968Z,2.10
2018-12-17T04:46:56.137Z,2.10
2018-12-17T04:49:24.311Z,2.10
2018-12-17T04:51:53.099Z,2.10
2018-12-17T04:54:21.203Z,2.20
2018-12-17T04:56:49.465Z,2.20
2018-12-17T04:59:17.637Z,2.20
2018-12-17T05:01:45.915Z,2.20
2018-12-17T05:04:14.105Z,2.20
2018-12-17T05:06:43.311Z,2.20
2018-12-17T05:09:11.432Z,2.20
2018-12-17T05:11:39.786Z,2.20
2018-12-17T05:14:08.095Z,2.10
2018-12-17T05:16:36.376Z,2.20
2018-12-17T05:19:06.117Z,2.20
2018-12-17T05:21:34.350Z,2.20
2018-12-17T05:24:02.459Z,2.20
2018-12-17T05:26:30.804Z,2.20
2018-12-17T05:28:59.079Z,2.10
2018-12-17T05:31:27.181Z,2.10
2018-12-17T05:33:55.332Z,2.20
2018-12-17T05:36:23.876Z,2.20
2018-12-17T05:38:52.159Z,2.20
2018-12-17T05:41:21.485Z,2.20
2018-12-17T05:43:49.794Z,2.20
2018-12-17T05:46:18.157Z,2.20
2018-12-17T05:48:46.498Z,2.10
2018-12-17T05:51:14.798Z,2.10
2018-12-17T05:53:42.902Z,2.10
2018-12-17T05:56:11.164Z,2.10
2018-12-17T05:58:39.541Z,2.20
2018-12-17T06:01:07.911Z,2.20
2018-12-17T06:03:36.266Z,2.20
2018-12-17T06:06:05.160Z,2.10
2018-12-17T06:08:33.467Z,2.10
2018-12-17T06:11:01.626Z,2.10
2018-12-17T06:13:29.790Z,2.20
2018-12-17T06:15:58.480Z,2.20
2018-12-17T06:18:26.738Z,2.20
2018-12-17T06:20:55.155Z,2.20
2018-12-17T06:23:23.290Z,2.30
2018-12-17T06:25:51.467Z,2.30
2018-12-17T06:28:19.824Z,2.30
2018-12-17T06:30:48.020Z,2.30
2018-12-17T06:33:16.194Z,2.30
2018-12-17T06:35:44.334Z,2.30
2018-12-17T06:38:12.990Z,2.20
2018-12-17T06:40:41.425Z,2.30
2018-12-17T06:43:09.531Z,2.30
2018-12-17T06:45:38.011Z,2.20
2018-12-17T06:48:06.179Z,2.30
2018-12-17T06:50:34.325Z,2.30
2018-12-17T06:53:02.483Z,2.40
2018-12-17T06:55:30.621Z,2.40
2018-12-17T06:57:59.203Z,2.40
2018-12-17T07:00:27.485Z,2.50
2018-12-17T07:02:55.725Z,2.50
2018-12-17T07:05:23.946Z,2.60
2018-12-17T07:07:52.113Z,2.50
2018-12-17T07:10:20.389Z,2.50
2018-12-17T07:12:48.663Z,2.50
2018-12-17T07:15:16.798Z,2.50
2018-12-17T07:17:45.016Z,2.50
2018-12-17T07:20:13.251Z,2.40
2018-12-17T07:22:41.397Z,2.40
2018-12-17T07:25:09.640Z,2.50
2018-12-17T07:27:37.952Z,2.50
2018-12-17T07:30:07.377Z,2.50
2018-12-17T07:32:36.037Z,2.50
2018-12-17T07:35:04.902Z,2.50
2018-12-17T07:37:32.998Z,2.60
2018-12-17T07:40:01.130Z,2.60
2018-12-17T07:42:29.258Z,2.60
2018-12-17T07:44:57.397Z,2.60
2018-12-17T07:47:25.616Z,2.70
2018-12-17T07:49:53.968Z,2.70
2018-12-17T07:52:22.090Z,2.70
2018-12-17T07:54:50.208Z,2.80
2018-12-17T07:57:19.363Z,2.70
2018-12-17T07:59:47.502Z,2.80
2018-12-17T08:02:15.654Z,2.80
2018-12-17T08:04:43.925Z,2.80
2018-12-17T08:07:13.016Z,2.80
2018-12-17T08:09:41.355Z,2.90
2018-12-17T08:12:09.614Z,2.90
2018-12-17T08:14:37.703Z,2.90
2018-12-17T08:17:05.878Z,2.90
2018-12-17T08:19:34.207Z,3.00
2018-12-17T08:22:02.471Z,3.00
2018-12-17T08:24:31.270Z,3.10
2018-12-17T08:26:59.688Z,3.20
2018-12-17T08:29:27.975Z,3.30
2018-12-17T08:31:56.095Z,3.40
2018-12-17T08:34:24.187Z,3.50
2018-12-17T08:36:52.267Z,3.50
2018-12-17T08:39:20.619Z,3.60
2018-12-17T08:41:48.690Z,3.60
2018-12-17T08:44:16.910Z,3.80
2018-12-17T08:46:45.096Z,3.80
2018-12-17T08:49:13.303Z,3.90
2018-12-17T08:51:41.508Z,4.00
2018-12-17T08:54:09.664Z,3.90
2018-12-17T08:56:37.856Z,3.90
2018-12-17T08:59:06.072Z,3.80
2018-12-17T09:01:34.167Z,3.80
2018-12-17T09:04:02.338Z,3.90
2018-12-17T09:06:30.493Z,4.10
2018-12-17T09:08:58.601Z,4.20
2018-12-17T09:11:27.268Z,4.40
2018-12-17T09:13:55.693Z,4.80
2018-12-17T09:16:23.906Z,5.30
2018-12-17T09:18:52.868Z,5.80
2018-12-17T09:21:21.071Z,6.80
2018-12-17T09:23:49.276Z,7.30
2018-12-17T09:26:17.451Z,8.10
2018-12-17T09:28:45.668Z,8.90
2018-12-17T09:31:13.808Z,9.30
2018-12-17T09:33:42.010Z,9.90
2018-12-17T09:36:10.206Z,10.40
2018-12-17T09:38:38.491Z,10.90
2018-12-17T09:41:06.634Z,11.10
2018-12-17T09:43:34.775Z,11.70
2018-12-17T09:46:03.182Z,11.30
2018-12-17T09:48:31.344Z,10.80
2018-12-17T09:50:59.588Z,10.30
2018-12-17T09:53:27.680Z,10.40
2018-12-17T09:55:55.919Z,9.80
2018-12-17T09:58:24.139Z,9.80
2018-12-17T10:00:53.424Z,9.40
2018-12-17T10:03:21.631Z,8.90
2018-12-17T10:05:49.953Z,8.20
2018-12-17T10:08:18.133Z,7.50
2018-12-17T10:10:47.975Z,7.10
2018-12-17T10:13:16.051Z,7.00
2018-12-17T10:15:44.209Z,7.50
2018-12-17T10:18:12.515Z,7.70
2018-12-17T10:20:40.643Z,8.10
2018-12-17T10:23:08.957Z,8.20
2018-12-17T10:25:37.147Z,8.30
2018-12-17T10:28:05.363Z,8.30
2018-12-17T10:30:33.529Z,8.20
2018-12-17T10:33:01.653Z,9.00
2018-12-17T10:35:29.850Z,10.80
2018-12-17T10:37:57.991Z,12.60
2018-12-17T10:40:26.176Z,13.50
2018-12-17T10:42:54.373Z,13.40
2018-12-17T10:45:23.367Z,11.70
2018-12-17T10:47:51.512Z,10.00
2018-12-17T10:50:19.645Z,9.40
2018-12-17T10:52:47.761Z,8.90
2018-12-17T10:55:15.994Z,8.80
2018-12-17T10:57:44.174Z,9.00
2018-12-17T11:00:17.686Z,8.50
2018-12-17T11:02:46.081Z,8.50
2018-12-17T11:05:15.943Z,8.00
2018-12-17T11:07:44.174Z,7.90
2018-12-17T11:10:12.531Z,7.50
2018-12-17T11:12:40.743Z,7.20
2018-12-17T11:15:10.745Z,7.10
2018-12-17T11:17:40.101Z,7.20
2018-12-17T11:20:10.014Z,7.20
2018-12-17T11:22:38.217Z,7.20
2018-12-17T11:25:07.239Z,7.30
2018-12-17T11:27:35.548Z,7.20
2018-12-17T11:30:06.484Z,7.20
2018-12-17T11:32:34.665Z,7.50
2018-12-17T11:37:31.692Z,8.00
2018-12-17T11:39:59.843Z,8.50
2018-12-17T11:42:28.630Z,8.70
2018-12-17T11:44:56.924Z,9.10
2018-12-17T11:47:25.257Z,9.10
2018-12-17T11:49:53.367Z,9.10
2018-12-17T11:52:21.590Z,8.30
2018-12-17T11:54:49.760Z,8.00
2018-12-17T11:58:23.074Z,7.90
2018-12-17T12:00:57.074Z,7.50
2018-12-17T12:03:26.127Z,6.80
2018-12-17T12:05:54.465Z,6.80
2018-12-17T12:08:22.615Z,6.40
2018-12-17T12:10:50.828Z,6.30
2018-12-17T12:13:18.989Z,6.40
2018-12-17T12:15:47.112Z,6.40
2018-12-17T12:18:15.369Z,6.20
2018-12-17T12:20:43.668Z,6.20
2018-12-17T12:23:11.888Z,6.20
2018-12-17T12:25:40.025Z,6.10
2018-12-17T12:28:08.167Z,5.90
2018-12-17T12:30:36.477Z,5.70
2018-12-17T12:33:05.022Z,5.70
2018-12-17T12:35:33.199Z,5.70
2018-12-17T12:38:01.361Z,5.80
2018-12-17T12:40:29.539Z,5.80
2018-12-17T12:42:57.697Z,5.90
2018-12-17T12:45:25.823Z,5.90
2018-12-17T12:47:54.687Z,5.70
2018-12-17T12:50:22.909Z,5.90
2018-12-17T12:52:51.087Z,6.00
2018-12-17T12:55:19.257Z,6.00
2018-12-17T12:57:47.447Z,6.00
2018-12-17T13:00:16.671Z,6.00
2018-12-17T13:02:44.921Z,5.90
2018-12-17T13:05:13.163Z,5.90
2018-12-17T13:07:41.479Z,5.90
2018-12-17T13:10:10.808Z,5.90
2018-12-17T13:12:39.179Z,5.80
2018-12-17T13:15:09.131Z,5.60
2018-12-17T13:17:37.910Z,5.70
2018-12-17T13:20:08.251Z,5.70
2018-12-17T13:22:36.568Z,5.80
2018-12-17T13:25:07.894Z,5.70
2018-12-17T13:27:36.080Z,5.70
2018-12-17T13:30:07.509Z,5.80
2018-12-17T13:32:35.683Z,5.80
2018-12-17T13:35:04.469Z,5.80
2018-12-17T13:37:32.682Z,5.80
2018-12-17T13:40:00.848Z,5.70
2018-12-17T13:42:29.015Z,5.80
2018-12-17T13:44:57.760Z,5.80
2018-12-17T13:47:25.954Z,5.90
2018-12-17T13:49:54.134Z,5.90
2018-12-17T13:52:28.034Z,5.90
2018-12-17T13:54:57.102Z,5.90
2018-12-17T13:57:25.519Z,5.80
2018-12-17T13:59:53.631Z,5.80
2018-12-17T14:02:21.823Z,5.80
2018-12-17T14:04:50.033Z,5.80
2018-12-17T14:07:18.184Z,5.80
2018-12-17T14:09:51.890Z,5.80
2018-12-17T14:12:20.215Z,5.80
2018-12-17T14:14:48.369Z,5.80
2018-12-17T14:17:22.156Z,5.80
2018-12-17T14:20:58.652Z,5.80
2018-12-17T14:23:26.921Z,5.80
2018-12-17T14:25:55.155Z,5.80
2018-12-17T14:28:23.395Z,5.60
2018-12-17T14:30:51.603Z,5.60
2018-12-17T14:33:19.730Z,5.50
2018-12-17T14:35:53.616Z,5.50
2018-12-17T14:38:21.776Z,5.40
2018-12-17T14:40:50.066Z,5.40
2018-12-17T14:43:18.214Z,5.30
2018-12-17T14:45:46.406Z,5.30
2018-12-17T14:48:14.656Z,5.20
2018-12-17T14:50:42.785Z,5.10
2018-12-17T14:53:10.966Z,5.10
2018-12-17T14:55:39.104Z,5.20
2018-12-17T14:58:07.281Z,5.10
2018-12-17T15:00:35.471Z,5.10
2018-12-17T15:03:03.905Z,5.10
2018-12-17T15:05:33.030Z,5.10
2018-12-17T15:08:01.204Z,5.00
2018-12-17T15:10:29.612Z,5.00
2018-12-17T15:12:57.792Z,5.00
2018-12-17T15:15:25.947Z,5.00
2018-12-17T15:17:54.231Z,5.00
2018-12-17T15:20:22.379Z,5.00
2018-12-17T15:22:50.474Z,5.00
2018-12-17T15:25:18.742Z,5.00
2018-12-17T15:27:47.011Z,5.00
2018-12-17T15:30:15.330Z,4.90
2018-12-17T15:32:43.528Z,4.90
2018-12-17T15:35:11.653Z,4.90
2018-12-17T15:37:39.867Z,4.90
2018-12-17T15:40:08.245Z,4.80
2018-12-17T15:42:40.881Z,4.80
2018-12-17T15:45:08.302Z,4.80
2018-12-17T15:47:36.521Z,4.90
2018-12-17T15:50:05.065Z,4.80
2018-12-17T15:52:33.264Z,4.80
2018-12-17T15:55:02.440Z,4.90
2018-12-17T15:57:31.027Z,4.90
2018-12-17T15:59:59.185Z,5.00
2018-12-17T16:02:27.290Z,4.90
2018-12-17T16:04:55.588Z,4.90
2018-12-17T16:07:24.316Z,4.90
2018-12-17T16:09:55.409Z,4.90
2018-12-17T16:12:24.071Z,4.90
2018-12-17T16:14:52.221Z,4.90
2018-12-17T16:17:20.341Z,4.90
2018-12-17T16:19:48.455Z,5.00
2018-12-17T16:22:16.774Z,5.00
2018-12-17T16:24:44.931Z,5.00
2018-12-17T16:27:19.166Z,5.00
2018-12-17T16:29:43.531Z,5.00
2018-12-17T16:32:11.739Z,5.00
2018-12-17T16:34:39.926Z,5.10
2018-12-17T16:37:08.307Z,5.00
2018-12-17T16:39:36.508Z,5.10
2018-12-17T16:42:04.645Z,5.10
2018-12-17T16:44:32.774Z,5.10
2018-12-17T16:47:01.050Z,5.10
2018-12-17T16:49:29.299Z,5.10
2018-12-17T16:51:57.422Z,5.20
2018-12-17T16:54:25.596Z,5.20
2018-12-17T16:56:53.821Z,5.20
2018-12-17T16:59:21.946Z,5.20
2018-12-17T17:01:50.058Z,5.30
2018-12-17T17:04:18.194Z,5.30
2018-12-17T17:06:46.411Z,5.20
2018-12-17T17:09:15.228Z,5.20
2018-12-17T17:11:43.422Z,5.20
2018-12-17T17:14:11.633Z,5.20
2018-12-17T17:16:39.936Z,5.20
2018-12-17T17:19:08.074Z,5.20
2018-12-17T17:21:36.376Z,5.30
2018-12-17T17:24:04.665Z,5.20
2018-12-17T17:26:33.012Z,5.20
2018-12-17T17:29:01.244Z,5.20
2018-12-17T17:31:29.600Z,5.10
2018-12-17T17:33:58.809Z,5.10
2018-12-17T17:36:27.192Z,5.20
2018-12-17T17:38:55.594Z,5.10
2018-12-17T17:41:23.893Z,5.10
2018-12-17T17:43:52.189Z,5.10
2018-12-17T17:46:21.301Z,5.20
2018-12-17T17:48:49.706Z,5.10
2018-12-17T17:51:17.927Z,5.10
2018-12-17T17:53:46.261Z,5.10
2018-12-17T17:56:14.696Z,5.20
2018-12-17T17:58:43.195Z,5.10
2018-12-17T18:01:11.425Z,5.10
2018-12-17T18:03:39.573Z,5.10
2018-12-17T18:06:07.783Z,5.10
2018-12-17T18:08:35.953Z,5.10
2018-12-17T18:11:04.292Z,5.20
2018-12-17T18:13:32.433Z,5.20
2018-12-17T18:16:00.752Z,5.20
2018-12-17T18:18:28.945Z,5.20
2018-12-17T18:20:57.144Z,5.20
2018-12-17T18:23:25.353Z,5.20
2018-12-17T18:25:53.524Z,5.30
2018-12-17T18:28:21.764Z,5.30
2018-12-17T18:30:50.264Z,5.20
2018-12-17T18:33:18.527Z,5.20
2018-12-17T18:35:46.888Z,5.20
2018-12-17T18:38:15.073Z,5.20
2018-12-17T18:40:43.340Z,5.30
2018-12-17T18:43:11.774Z,5.20
2018-12-17T18:45:39.980Z,5.30
2018-12-17T18:48:08.202Z,5.30
2018-12-17T18:50:36.340Z,5.30
2018-12-17T18:53:04.579Z,5.20
2018-12-17T18:55:32.726Z,5.30
2018-12-17T18:58:00.988Z,5.30
2018-12-17T19:00:29.221Z,5.30
2018-12-17T19:02:57.404Z,5.30
2018-12-17T19:05:25.588Z,5.30
2018-12-17T19:07:54.078Z,5.30
2018-12-17T19:10:22.248Z,5.30
2018-12-17T19:12:50.476Z,5.40
2018-12-17T19:15:18.806Z,5.30
2018-12-17T19:17:47.057Z,5.40
2018-12-17T19:20:15.234Z,5.30
2018-12-17T19:22:44.116Z,5.30
2018-12-17T19:25:12.450Z,5.30
2018-12-17T19:27:40.670Z,5.30
2018-12-17T19:30:09.884Z,5.30
2018-12-17T19:32:40.324Z,5.30
2018-12-17T19:35:08.454Z,5.30
2018-12-17T19:37:36.602Z,5.30
2018-12-17T19:40:06.148Z,5.20
2018-12-17T19:42:34.331Z,5.20
2018-12-17T19:45:02.572Z,5.20
2018-12-17T19:47:30.795Z,5.20
2018-12-17T19:49:59.520Z,5.10
2018-12-17T19:52:27.689Z,5.00
2018-12-17T19:54:55.821Z,4.90
2018-12-17T19:57:24.156Z,4.90
2018-12-17T19:59:52.297Z,4.80
2018-12-17T20:02:20.451Z,4.80
2018-12-17T20:04:48.648Z,4.70
2018-12-17T20:07:16.821Z,4.70
2018-12-17T20:09:44.920Z,4.70
2018-12-17T20:12:13.206Z,4.80
2018-12-17T20:14:41.356Z,4.80
2018-12-17T20:17:09.508Z,4.80
2018-12-17T20:19:37.696Z,4.90
2018-12-17T20:22:05.827Z,4.90
2018-12-17T20:24:33.994Z,5.00
2018-12-17T20:27:02.124Z,5.00
2018-12-17T20:29:31.184Z,5.00
2018-12-17T20:32:00.246Z,5.10
2018-12-17T20:34:28.462Z,5.10
2018-12-17T20:36:56.631Z,5.00
2018-12-17T20:39:24.839Z,5.00
2018-12-17T20:41:53.068Z,5.00
2018-12-17T20:44:21.208Z,5.00
2018-12-17T20:46:49.560Z,5.00
2018-12-17T20:49:17.769Z,5.00
2018-12-17T20:51:46.356Z,5.10
2018-12-17T20:57:00.416Z,5.10
2018-12-17T20:59:28.611Z,5.10
2018-12-17T21:01:56.860Z,5.10
2018-12-17T21:04:25.061Z,5.10
2018-12-17T21:06:53.316Z,5.10
2018-12-17T21:09:21.457Z,5.10
2018-12-17T21:11:49.579Z,5.00
2018-12-17T21:14:23.451Z,5.10
2018-12-17T21:16:47.900Z,5.00
2018-12-17T21:19:16.144Z,5.00
2018-12-17T21:21:44.396Z,5.00
2018-12-17T21:24:12.647Z,4.90
2018-12-17T21:26:41.406Z,4.90
2018-12-17T21:29:09.567Z,4.90
2018-12-17T21:31:37.849Z,5.00
2018-12-17T21:34:05.985Z,5.00
2018-12-17T21:36:34.124Z,4.90
2018-12-17T21:39:02.553Z,5.00
2018-12-17T21:41:30.705Z,4.90
2018-12-17T21:43:58.869Z,4.90
2018-12-17T21:46:29.858Z,4.90
2018-12-17T21:48:58.007Z,4.90
2018-12-17T21:51:26.126Z,4.90
2018-12-17T21:53:54.282Z,4.80
2018-12-17T21:56:22.439Z,4.90
2018-12-17T21:58:50.705Z,4.90
2018-12-17T22:01:18.987Z,4.90
2018-12-17T22:03:47.119Z,4.90
2018-12-17T22:06:15.992Z,4.90
2018-12-17T22:08:44.273Z,4.90
2018-12-17T22:11:12.573Z,4.90
2018-12-17T22:13:40.688Z,4.90
2018-12-17T22:16:08.783Z,4.80
2018-12-17T22:18:37.003Z,4.80
2018-12-17T22:21:05.432Z,4.80
2018-12-17T22:23:33.717Z,4.70
2018-12-17T22:26:01.892Z,4.70
2018-12-17T22:28:30.208Z,4.70
2018-12-17T22:30:58.521Z,4.70
2018-12-17T22:33:26.834Z,4.70
2018-12-17T22:35:54.967Z,4.80
2018-12-17T22:38:23.139Z,4.80
2018-12-17T22:40:51.281Z,4.80
2018-12-17T22:43:19.483Z,4.80
2018-12-17T22:45:48.165Z,4.80
2018-12-17T22:48:16.550Z,4.70
2018-12-17T22:50:44.724Z,4.70
2018-12-17T22:53:12.829Z,4.70
2018-12-17T22:55:41.024Z,4.70
2018-12-17T22:58:09.326Z,4.70
2018-12-17T23:00:37.766Z,4.80
2018-12-17T23:03:06.072Z,4.70
2018-12-17T23:05:34.564Z,4.70
2018-12-17T23:08:02.678Z,4.70
2018-12-17T23:10:48.054Z,4.70
2018-12-17T23:13:33.603Z,4.60
2018-12-17T23:16:19.092Z,4.60
2018-12-17T23:18:45.586Z,4.60
2018-12-17T23:21:14.126Z,4.60
2018-12-17T23:23:42.560Z,4.60
2018-12-17T23:26:10.930Z,4.60
2018-12-17T23:28:39.394Z,4.70
2018-12-17T23:31:08.679Z,4.70
2018-12-17T23:33:36.898Z,4.70
2018-12-17T23:36:07.117Z,4.70
2018-12-17T23:38:35.592Z,4.80
2018-12-17T23:41:03.782Z,4.80
2018-12-17T23:43:31.973Z,4.80
2018-12-17T23:46:00.161Z,4.80
2018-12-17T23:48:28.597Z,4.80
2018-12-17T23:50:56.768Z,4.80
2018-12-17T23:53:24.872Z,4.80
2018-12-17T23:55:53.000Z,4.90
2018-12-17T23:58:21.345Z,4.90
